Time;durP1;ratioP1;P1;durP2;ratioP2;P2;SDS_P1;SDS_P2;PMS_P1;PMS_P2;Temp;Humidity;BMP_temperature;BMP_pressure;BME280_temperature;BME280_humidity;BME280_pressure;Samples;Min_cycle;Max_cycle;Signal;HPM_P1;HPM_P2
2023/11/15 00:01:07;;;;;;;7.80;2.70;;;;;;;9.00;100.00;97704.94;109683;1251;58943;-73
2023/11/15 00:03:33;;;;;;;5.20;2.70;;;;;;;9.01;100.00;97709.27;109655;1251;67991;-73
2023/11/15 00:06:00;;;;;;;6.40;2.80;;;;;;;9.02;100.00;97708.54;109639;1250;71451;-73
2023/11/15 00:08:28;;;;;;;3.60;2.40;;;;;;;8.99;100.00;97708.00;109680;1251;58946;-73
2023/11/15 00:10:55;;;;;;;5.50;2.70;;;;;;;8.96;100.00;97705.08;109601;1251;59232;-73
2023/11/15 00:13:22;;;;;;;6.30;3.00;;;;;;;8.91;100.00;97701.42;109655;1251;74375;-73
2023/11/15 00:15:48;;;;;;;5.20;3.00;;;;;;;8.86;100.00;97698.77;109668;1250;66417;-73
2023/11/15 00:18:15;;;;;;;5.50;3.20;;;;;;;8.83;100.00;97697.66;109610;1251;72595;-74
2023/11/15 00:20:42;;;;;;;9.00;3.80;;;;;;;8.79;100.00;97692.63;109596;1250;60583;-73
2023/11/15 00:23:09;;;;;;;6.30;3.30;;;;;;;8.77;100.00;97691.53;109666;1251;60273;-73
2023/11/15 00:25:36;;;;;;;5.00;3.00;;;;;;;8.74;100.00;97686.42;109655;1251;74741;-73
2023/11/15 00:28:03;;;;;;;7.00;3.00;;;;;;;8.71;100.00;97681.54;109635;1251;67699;-73
2023/11/15 00:30:30;;;;;;;8.50;3.10;;;;;;;8.65;100.00;97681.04;109640;1251;72730;-73
2023/11/15 00:32:57;;;;;;;4.70;2.80;;;;;;;8.59;100.00;97680.77;109557;1251;60544;-74
2023/11/15 00:35:25;;;;;;;7.90;2.70;;;;;;;8.53;100.00;97680.73;109596;1251;60171;-73
2023/11/15 00:37:51;;;;;;;4.50;2.40;;;;;;;8.49;100.00;97679.69;109621;1251;74392;-74
2023/11/15 00:40:18;;;;;;;5.50;2.70;;;;;;;8.45;100.00;97678.33;109648;1251;66465;-73
2023/11/15 00:42:44;;;;;;;4.60;2.40;;;;;;;8.42;100.00;97682.29;109597;1251;72591;-73
2023/11/15 00:45:14;;;;;;;5.90;3.00;;;;;;;8.39;100.00;97681.48;109538;1251;59290;-73
2023/11/15 00:47:41;;;;;;;6.60;2.90;;;;;;;8.36;100.00;97680.63;109611;1251;60175;-73
2023/11/15 00:50:07;;;;;;;6.60;3.00;;;;;;;8.31;100.00;97675.81;109638;1251;74515;-73
2023/11/15 00:52:35;;;;;;;4.60;2.70;;;;;;;8.27;100.00;97680.60;109670;1250;66603;-73
2023/11/15 00:55:02;;;;;;;7.60;3.10;;;;;;;8.25;100.00;97680.64;109629;1251;72680;-73
2023/11/15 00:57:30;;;;;;;4.70;2.20;;;;;;;8.24;100.00;97679.96;109586;1250;62045;-73
2023/11/15 00:59:56;;;;;;;5.00;2.80;;;;;;;8.24;100.00;97684.94;109632;1254;60071;-73
2023/11/15 01:02:35;;;;;;;4.90;2.30;;;;;;;8.22;100.00;97687.29;109670;1251;74408;-73
2023/11/15 01:05:03;;;;;;;8.70;2.70;;;;;;;8.19;100.00;97683.42;109670;1251;67922;-73
2023/11/15 01:07:31;;;;;;;3.50;2.20;;;;;;;8.15;100.00;97680.36;109541;1251;72520;-73
2023/11/15 01:09:58;;;;;;;4.20;1.90;;;;;;;8.13;100.00;97675.75;109616;1250;60810;-74
2023/11/15 01:12:25;;;;;;;5.00;2.40;;;;;;;8.10;100.00;97677.14;109552;1254;60206;-73
2023/11/15 01:14:53;;;;;;;4.00;2.30;;;;;;;8.07;100.00;97676.50;109565;1251;73300;-73
2023/11/15 01:17:20;;;;;;;5.00;2.20;;;;;;;8.04;100.00;97674.25;109654;1250;65824;-73
2023/11/15 01:19:49;;;;;;;6.60;2.60;;;;;;;8.01;100.00;97678.67;109605;1251;72590;-73
2023/11/15 01:22:15;;;;;;;6.40;2.60;;;;;;;7.99;100.00;97675.58;109579;1250;61835;-73
2023/11/15 01:24:42;;;;;;;4.60;2.20;;;;;;;7.97;100.00;97680.73;109470;1251;60265;-73
2023/11/15 01:27:08;;;;;;;3.80;2.20;;;;;;;7.95;100.00;97677.42;109627;1251;73298;-73
2023/11/15 01:29:35;;;;;;;6.50;3.30;;;;;;;7.96;100.00;97673.88;109695;1251;66963;-73
2023/11/15 01:32:02;;;;;;;2.60;2.20;;;;;;;7.97;100.00;97673.77;109598;1250;72641;-73
2023/11/15 01:34:29;;;;;;;6.30;2.50;;;;;;;7.98;100.00;97667.74;109673;1250;60265;-74
2023/11/15 01:36:56;;;;;;;6.50;2.80;;;;;;;8.01;100.00;97667.23;109661;1251;58987;-73
2023/11/15 01:39:23;;;;;;;6.70;2.50;;;;;;;8.05;100.00;97666.34;109567;1250;59094;-73
2023/11/15 01:41:50;;;;;;;6.50;2.80;;;;;;;8.07;100.00;97665.83;109651;1252;68744;-73
2023/11/15 01:44:18;;;;;;;6.20;2.60;;;;;;;8.08;100.00;97666.20;109618;1251;71339;-73
2023/11/15 01:46:46;;;;;;;4.10;2.00;;;;;;;8.08;100.00;97666.41;109595;1251;60695;-73
2023/11/15 01:49:18;;;;;;;5.40;2.40;;;;;;;8.07;100.00;97666.73;109507;1250;58845;-73
2023/11/15 01:51:44;;;;;;;6.50;2.60;;;;;;;8.05;100.00;97667.13;109524;1251;74728;-73
2023/11/15 01:54:13;;;;;;;6.10;2.80;;;;;;;8.03;100.00;97659.53;109533;1251;67932;-73
2023/11/15 01:56:39;;;;;;;7.20;2.70;;;;;;;8.02;100.00;97657.34;109566;1250;73185;-73
2023/11/15 01:59:06;;;;;;;6.90;2.70;;;;;;;8.01;100.00;97653.83;109548;1251;61874;-73
2023/11/15 02:01:32;;;;;;;5.00;3.30;;;;;;;7.99;100.00;97653.54;109548;1251;59456;-73
2023/11/15 02:03:59;;;;;;;4.20;2.70;;;;;;;7.98;100.00;97652.84;109569;1251;74636;-73
2023/11/15 02:06:28;;;;;;;6.10;3.20;;;;;;;7.97;100.00;97649.98;109569;1250;66716;-73
2023/11/15 02:08:55;;;;;;;5.00;2.80;;;;;;;7.96;100.00;97655.41;109617;1251;71269;-73
2023/11/15 02:11:21;;;;;;;6.20;3.50;;;;;;;7.98;100.00;97654.91;109544;1251;60353;-73
2023/11/15 02:13:48;;;;;;;5.60;3.90;;;;;;;7.99;100.00;97658.13;109642;1251;60758;-73
2023/11/15 02:16:14;;;;;;;7.30;3.50;;;;;;;7.99;100.00;97655.94;109610;1251;59144;-73
2023/11/15 02:18:42;;;;;;;5.60;3.60;;;;;;;8.01;100.00;97658.22;109544;1251;67178;-73
2023/11/15 02:21:12;;;;;;;4.40;2.70;;;;;;;8.02;100.00;97661.77;109592;1251;71241;-73
2023/11/15 02:23:45;;;;;;;6.50;3.10;;;;;;;8.05;100.00;97659.41;109564;1251;60710;-73
2023/11/15 02:26:12;;;;;;;5.30;3.60;;;;;;;8.06;100.00;97656.45;109630;1251;60187;-73
2023/11/15 02:28:39;;;;;;;5.20;3.10;;;;;;;8.05;100.00;97657.64;109613;1251;74552;-73
2023/11/15 02:31:05;;;;;;;4.10;3.10;;;;;;;8.05;100.00;97658.01;109606;1251;67901;-73
2023/11/15 02:33:32;;;;;;;5.40;3.70;;;;;;;8.04;100.00;97660.67;109593;1251;72416;-74
2023/11/15 02:35:59;;;;;;;5.20;3.20;;;;;;;8.04;100.00;97659.95;109584;1250;61013;-76
2023/11/15 02:38:25;;;;;;;5.10;3.00;;;;;;;8.06;100.00;97661.39;109660;1250;59288;-74
2023/11/15 02:40:52;;;;;;;5.60;2.70;;;;;;;8.08;100.00;97658.83;109596;1250;74599;-74
2023/11/15 02:43:19;;;;;;;6.10;3.30;;;;;;;8.12;100.00;97666.79;109575;1253;66954;-73
2023/11/15 02:45:45;;;;;;;5.00;2.90;;;;;;;8.17;100.00;97669.03;109630;1250;59320;-73
2023/11/15 02:48:12;;;;;;;7.70;4.10;;;;;;;8.21;100.00;97672.15;109608;1251;58937;-73
2023/11/15 02:50:39;;;;;;;7.20;3.20;;;;;;;8.26;100.00;97675.36;109655;1251;58863;-73
2023/11/15 02:53:05;;;;;;;7.40;3.30;;;;;;;8.32;100.00;97673.00;109584;1250;74573;-74
2023/11/15 02:55:32;;;;;;;5.80;3.00;;;;;;;8.38;100.00;97676.27;109565;1251;67701;-74
2023/11/15 02:58:00;;;;;;;6.20;3.00;;;;;;;8.43;100.00;97678.54;109577;1251;72636;-74
2023/11/15 03:00:29;;;;;;;5.60;3.30;;;;;;;8.46;100.00;97675.19;109593;1251;60435;-74
2023/11/15 03:02:55;;;;;;;8.50;4.00;;;;;;;8.50;100.00;97682.50;109625;1251;60090;-74
2023/11/15 03:05:22;;;;;;;7.40;3.50;;;;;;;8.53;100.00;97675.21;109622;1254;74428;-73
2023/11/15 03:07:49;;;;;;;4.10;2.70;;;;;;;8.57;100.00;97673.10;109563;1250;67878;-74
2023/11/15 03:10:16;;;;;;;4.10;3.20;;;;;;;8.58;100.00;97674.90;109590;1251;72483;-74
2023/11/15 03:12:43;;;;;;;4.70;2.50;;;;;;;8.59;100.00;97677.06;109633;1251;60427;-73
2023/11/15 03:15:09;;;;;;;8.40;2.90;;;;;;;8.61;100.00;97681.59;109558;1252;60178;-73
2023/11/15 03:17:37;;;;;;;5.80;2.70;;;;;;;8.62;100.00;97678.63;109566;1252;74732;-74
2023/11/15 03:20:05;;;;;;;4.10;2.80;;;;;;;8.63;100.00;97682.52;109686;1251;67623;-74
2023/11/15 03:22:32;;;;;;;5.70;3.10;;;;;;;8.65;100.00;97693.06;109556;1253;72583;-74
2023/11/15 03:24:59;;;;;;;10.10;4.00;;;;;;;8.67;100.00;97689.92;109573;1250;60667;-74
2023/11/15 03:27:25;;;;;;;6.40;3.40;;;;;;;8.70;100.00;97693.96;109635;1250;59016;-74
2023/11/15 03:29:52;;;;;;;6.60;3.40;;;;;;;8.72;100.00;97693.41;109659;1250;59118;-74
2023/11/15 03:32:18;;;;;;;9.00;3.70;;;;;;;8.73;100.00;97698.42;109617;1251;68669;-74
2023/11/15 03:34:46;;;;;;;8.50;3.20;;;;;;;8.74;100.00;97694.74;109550;1251;72626;-74
2023/11/15 03:37:14;;;;;;;5.50;3.20;;;;;;;8.74;100.00;97695.03;109528;1251;59690;-74
2023/11/15 03:39:41;;;;;;;8.00;3.80;;;;;;;8.75;100.00;97691.37;109681;1249;60482;-75
2023/11/15 03:42:07;;;;;;;6.90;2.90;;;;;;;8.76;100.00;97695.89;109699;1251;74440;-74
2023/11/15 03:44:34;;;;;;;6.10;2.70;;;;;;;8.75;100.00;97693.73;109704;1251;67935;-74
2023/11/15 03:47:00;;;;;;;3.70;2.30;;;;;;;8.71;100.00;97694.59;109629;1254;71606;-74
2023/11/15 03:49:27;;;;;;;6.90;2.90;;;;;;;8.64;100.00;97696.66;109631;1250;61976;-74
2023/11/15 03:51:54;;;;;;;8.10;2.80;;;;;;;8.59;100.00;97695.17;109672;1251;59335;-74
2023/11/15 03:54:20;;;;;;;4.10;2.70;;;;;;;8.56;100.00;97692.30;109559;1251;73234;-74
2023/11/15 03:56:47;;;;;;;4.60;3.10;;;;;;;8.54;100.00;97693.58;109700;1251;68271;-74
2023/11/15 03:59:13;;;;;;;8.90;3.50;;;;;;;8.54;100.00;97693.77;109613;1251;71247;-74
2023/11/15 04:01:40;;;;;;;4.80;2.60;;;;;;;8.53;100.00;97693.92;109577;1250;59042;-74
2023/11/15 04:04:23;;;;;;;3.70;2.20;;;;;;;8.53;100.00;97692.51;109615;1251;60260;-74
2023/11/15 04:06:50;;;;;;;5.10;2.80;;;;;;;8.55;100.00;97695.12;109627;1251;74411;-72
2023/11/15 04:09:16;;;;;;;3.50;2.10;;;;;;;8.58;100.00;97697.16;109577;1251;66790;-73
2023/11/15 04:11:43;;;;;;;4.80;2.50;;;;;;;8.61;100.00;97697.30;109687;1251;73061;-72
2023/11/15 04:14:09;;;;;;;5.40;2.50;;;;;;;8.65;100.00;97696.40;109659;1250;60185;-72
2023/11/15 04:16:36;;;;;;;3.20;2.30;;;;;;;8.70;100.00;97698.02;109679;1251;60083;-73
2023/11/15 04:19:04;;;;;;;4.40;2.60;;;;;;;8.75;100.00;97696.74;109667;1251;73374;-72
2023/11/15 04:21:31;;;;;;;5.10;2.20;;;;;;;8.77;100.00;97696.21;109612;1251;66437;-72
2023/11/15 04:23:58;;;;;;;4.30;2.50;;;;;;;8.79;100.00;97697.37;109594;1251;72775;-73
2023/11/15 04:26:25;;;;;;;4.50;2.20;;;;;;;8.80;100.00;97691.95;109621;1251;61828;-73
2023/11/15 04:28:51;;;;;;;4.80;2.60;;;;;;;8.82;100.00;97696.64;109671;1251;58953;-73
2023/11/15 04:31:18;;;;;;;4.70;2.40;;;;;;;8.84;100.00;97697.42;109591;1251;73428;-72
2023/11/15 04:33:45;;;;;;;5.70;2.60;;;;;;;8.87;100.00;97695.46;109635;1254;68006;-72
2023/11/15 04:36:14;;;;;;;4.20;2.20;;;;;;;8.90;100.00;97693.27;109571;1251;72663;-72
2023/11/15 04:38:40;;;;;;;6.20;3.20;;;;;;;8.93;100.00;97695.91;109659;1251;60280;-71
2023/11/15 04:41:07;;;;;;;4.50;2.50;;;;;;;8.95;100.00;97698.23;109681;1251;59027;-72
2023/11/15 04:43:33;;;;;;;5.90;2.30;;;;;;;8.95;100.00;97695.42;109634;1251;74424;-73
2023/11/15 04:46:00;;;;;;;5.80;2.50;;;;;;;8.95;100.00;97697.95;109642;1251;67691;-72
2023/11/15 04:48:26;;;;;;;4.00;2.00;;;;;;;8.96;100.00;97694.62;109629;1252;72486;-72
2023/11/15 04:50:54;;;;;;;3.50;2.00;;;;;;;8.98;100.00;97692.78;109611;1251;60869;-71
2023/11/15 04:53:21;;;;;;;5.30;1.80;;;;;;;8.99;100.00;97688.91;109688;1251;60361;-73
2023/11/15 04:55:47;;;;;;;4.60;2.00;;;;;;;9.00;100.00;97689.10;109594;1252;73302;-73
2023/11/15 04:58:14;;;;;;;5.00;2.50;;;;;;;9.01;100.00;97690.41;109683;1251;59173;-73
2023/11/15 05:00:41;;;;;;;5.20;2.30;;;;;;;9.01;100.00;97686.70;109624;1251;71075;-73
2023/11/15 05:03:08;;;;;;;11.40;7.90;;;;;;;9.01;100.00;97689.92;109555;1251;59645;-74
2023/11/15 05:05:34;;;;;;;39.60;21.70;;;;;;;8.99;100.00;97685.10;109562;1253;59374;-75
2023/11/15 05:08:01;;;;;;;14.60;10.90;;;;;;;8.98;100.00;97687.93;109560;1251;74700;-73
2023/11/15 05:10:29;;;;;;;12.70;9.20;;;;;;;8.98;100.00;97682.61;109689;1250;66403;-76
2023/11/15 05:12:55;;;;;;;11.40;6.40;;;;;;;8.99;100.00;97681.48;109613;1251;71542;-76
2023/11/15 05:15:22;;;;;;;11.50;6.00;;;;;;;8.99;100.00;97686.38;109521;1251;59260;-71
2023/11/15 05:17:48;;;;;;;7.30;3.80;;;;;;;8.98;100.00;97682.83;109650;1251;60363;-73
2023/11/15 05:20:15;;;;;;;4.70;2.90;;;;;;;8.97;100.00;97680.63;109731;1251;74621;-71
2023/11/15 05:22:41;;;;;;;5.80;3.10;;;;;;;8.95;100.00;97679.02;109679;1251;66610;-69
2023/11/15 05:25:08;;;;;;;5.00;2.30;;;;;;;8.92;100.00;97680.94;109610;1253;58951;-69
2023/11/15 05:27:35;;;;;;;7.10;2.60;;;;;;;8.90;100.00;97682.16;109653;1251;61668;-71
2023/11/15 05:30:01;;;;;;;4.90;2.20;;;;;;;8.87;100.00;97680.20;109680;1251;58977;-71
2023/11/15 05:32:28;;;;;;;5.20;2.40;;;;;;;8.86;100.00;97682.73;109641;1251;73692;-70
2023/11/15 05:34:55;;;;;;;6.10;3.00;;;;;;;8.83;100.00;97686.61;109658;1251;66399;-73
2023/11/15 05:37:22;;;;;;;5.80;2.40;;;;;;;8.82;100.00;97686.28;109642;1250;71421;-68
2023/11/15 05:39:49;;;;;;;6.60;2.70;;;;;;;8.80;100.00;97686.96;109610;1253;60197;-69
2023/11/15 05:42:16;;;;;;;5.80;2.80;;;;;;;8.80;100.00;97688.11;109630;1255;59388;-69
2023/11/15 05:44:42;;;;;;;5.90;2.50;;;;;;;8.80;100.00;97687.09;109655;1254;59362;-70
2023/11/15 05:47:09;;;;;;;3.90;1.90;;;;;;;8.82;100.00;97692.31;109664;1251;67767;-70
2023/11/15 05:49:35;;;;;;;4.60;2.20;;;;;;;8.85;100.00;97687.79;109634;1251;71397;-71
2023/11/15 05:52:02;;;;;;;4.60;2.50;;;;;;;8.93;100.00;97688.85;109538;1250;59169;-70
2023/11/15 05:54:31;;;;;;;4.70;2.50;;;;;;;9.03;100.00;97689.76;109613;1251;59182;-71
2023/11/15 05:56:58;;;;;;;4.40;2.90;;;;;;;9.16;100.00;97688.46;109607;1251;73183;-69
2023/11/15 05:59:26;;;;;;;4.90;2.30;;;;;;;9.32;100.00;97689.35;109589;1251;68361;-69
2023/11/15 06:01:54;;;;;;;4.10;2.80;;;;;;;9.50;100.00;97689.59;109579;1250;71169;-70
2023/11/15 06:04:23;;;;;;;6.80;3.00;;;;;;;9.68;100.00;97688.65;109635;1254;60817;-70
2023/11/15 06:06:49;;;;;;;6.10;3.20;;;;;;;9.84;100.00;97691.31;109701;1251;60123;-69
2023/11/15 06:09:17;;;;;;;5.60;2.70;;;;;;;9.94;100.00;97694.50;109527;1251;59045;-69
2023/11/15 06:11:44;;;;;;;5.50;3.00;;;;;;;10.00;100.00;97693.39;109626;1250;67574;-69
2023/11/15 06:14:14;;;;;;;5.20;3.10;;;;;;;10.03;100.00;97693.46;109650;1251;71647;-71
2023/11/15 06:16:41;;;;;;;8.20;3.10;;;;;;;10.03;100.00;97696.70;109562;1251;58924;-72
2023/11/15 06:19:08;;;;;;;4.20;3.00;;;;;;;10.02;100.00;97697.63;109623;1251;59994;-71
2023/11/15 06:21:41;;;;;;;5.80;2.60;;;;;;;10.00;100.00;97702.12;109651;1252;74430;-72
2023/11/15 06:24:08;;;;;;;5.00;2.70;;;;;;;9.96;100.00;97701.87;109626;1251;66403;-71
2023/11/15 06:26:38;;;;;;;4.00;3.20;;;;;;;9.91;100.00;97700.16;109637;1254;70161;-71
2023/11/15 06:29:05;;;;;;;4.60;2.40;;;;;;;9.91;100.00;97704.13;109663;1251;61790;-73
2023/11/15 06:31:32;;;;;;;6.30;2.60;;;;;;;9.91;100.00;97706.81;109637;1251;58916;-70
2023/11/15 06:33:59;;;;;;;6.80;2.90;;;;;;;9.86;100.00;97703.44;109555;1250;74482;-70
2023/11/15 06:36:25;;;;;;;6.60;2.60;;;;;;;9.81;100.00;97705.83;109606;1251;67925;-69
2023/11/15 06:38:52;;;;;;;3.60;2.80;;;;;;;9.78;100.00;97710.31;109588;1250;72390;-75
2023/11/15 06:41:18;;;;;;;5.50;2.90;;;;;;;9.78;100.00;97712.52;109578;1251;61053;-80
2023/11/15 06:43:45;;;;;;;4.10;2.40;;;;;;;9.75;100.00;97709.10;109549;1251;60040;-71
2023/11/15 06:46:17;;;;;;;5.00;2.60;;;;;;;9.72;100.00;97710.79;109578;1251;74444;-70
2023/11/15 06:48:44;;;;;;;3.60;2.30;;;;;;;9.69;100.00;97710.55;109623;1254;67709;-70
2023/11/15 06:51:10;;;;;;;5.80;2.20;;;;;;;9.69;100.00;97711.52;109609;1251;72315;-71
2023/11/15 06:53:38;;;;;;;7.90;2.90;;;;;;;9.70;100.00;97711.64;109605;1251;59395;-70
2023/11/15 06:56:07;;;;;;;4.60;2.60;;;;;;;9.68;100.00;97711.56;109621;1250;60109;-70
2023/11/15 06:58:33;;;;;;;6.30;2.70;;;;;;;9.66;100.00;97705.16;109639;1254;74342;-70
2023/11/15 07:01:00;;;;;;;5.60;2.80;;;;;;;9.64;100.00;97704.59;109620;1250;66327;-70
2023/11/15 07:03:28;;;;;;;4.90;2.70;;;;;;;9.66;100.00;97705.48;109653;1251;71100;-70
2023/11/15 07:05:55;;;;;;;4.90;2.60;;;;;;;9.80;100.00;97704.55;109593;1255;60783;-70
2023/11/15 07:08:21;;;;;;;5.40;2.60;;;;;;;10.05;100.00;97704.48;109617;1251;60577;-71
2023/11/15 07:10:48;;;;;;;7.20;4.50;;;;;;;10.28;100.00;97698.70;109661;1251;75056;-71
2023/11/15 07:13:16;;;;;;;6.30;5.00;;;;;;;10.49;100.00;97696.16;109606;1251;58977;-69
2023/11/15 07:15:44;;;;;;;6.10;4.00;;;;;;;10.74;100.00;97691.19;109628;1251;71698;-70
2023/11/15 07:18:13;;;;;;;5.10;3.30;;;;;;;11.05;100.00;97688.55;109570;1251;61866;-72
2023/11/15 07:20:41;;;;;;;6.60;4.00;;;;;;;11.41;100.00;97689.29;109585;1251;59016;-72
2023/11/15 07:23:08;;;;;;;5.60;3.80;;;;;;;11.80;100.00;97690.54;109607;1255;74482;-73
2023/11/15 07:25:35;;;;;;;7.00;3.80;;;;;;;12.23;100.00;97684.84;109692;1251;67988;-72
2023/11/15 07:28:01;;;;;;;4.90;3.10;;;;;;;12.66;100.00;97686.58;109622;1251;59059;-75
2023/11/15 07:30:28;;;;;;;6.40;3.10;;;;;;;13.01;100.00;97690.14;109658;1251;59265;-69
2023/11/15 07:32:55;;;;;;;3.80;2.50;;;;;;;13.43;100.00;97687.18;109664;1251;60568;-70
2023/11/15 07:35:22;;;;;;;7.40;3.30;;;;;;;13.95;100.00;97688.84;109593;1251;74563;-68
2023/11/15 07:37:48;;;;;;;8.00;3.70;;;;;;;14.46;100.00;97685.98;109642;1251;58948;-68
2023/11/15 07:40:15;;;;;;;5.00;3.30;;;;;;;14.83;100.00;97679.19;109618;1251;59031;-69
2023/11/15 07:42:42;;;;;;;5.00;2.80;;;;;;;14.91;100.00;97678.23;109642;1250;60823;-70
2023/11/15 07:45:09;;;;;;;8.50;3.40;;;;;;;14.77;100.00;97680.75;109673;1251;58874;-70
2023/11/15 07:47:36;;;;;;;5.40;3.50;;;;;;;14.67;100.00;97677.08;109598;1251;74637;-66
2023/11/15 07:50:03;;;;;;;4.30;3.00;;;;;;;14.52;100.00;97674.71;109647;1250;67680;-69
2023/11/15 07:52:33;;;;;;;7.90;3.10;;;;;;;14.35;100.00;97674.16;109625;1250;72506;-69
2023/11/15 07:55:00;;;;;;;6.20;4.00;;;;;;;14.43;100.00;97672.94;109525;1251;59808;-69
2023/11/15 07:57:28;;;;;;;5.90;3.60;;;;;;;14.67;100.00;97671.30;109659;1251;60324;-67
2023/11/15 07:59:55;;;;;;;7.90;3.50;;;;;;;14.86;100.00;97670.42;109598;1251;58844;-68
2023/11/15 08:02:22;;;;;;;5.40;3.40;;;;;;;14.99;100.00;97671.28;109582;1250;67839;-72
2023/11/15 08:04:50;;;;;;;7.50;4.10;;;;;;;15.26;100.00;97671.58;109637;1251;71566;-71
2023/11/15 08:07:18;;;;;;;7.00;3.80;;;;;;;15.61;100.00;97672.96;109627;1251;58962;-72
2023/11/15 08:09:47;;;;;;;8.40;4.40;;;;;;;15.92;100.00;97672.50;109579;1251;60373;-74
2023/11/15 08:12:13;;;;;;;9.40;3.90;;;;;;;16.19;100.00;97676.23;109673;1251;73590;-73
2023/11/15 08:14:40;;;;;;;6.30;3.20;;;;;;;16.58;100.00;97673.08;109651;1251;67841;-74
2023/11/15 08:17:06;;;;;;;7.80;4.20;;;;;;;16.93;100.00;97675.17;109603;1251;72649;-74
2023/11/15 08:19:33;;;;;;;6.70;3.70;;;;;;;17.06;100.00;97671.86;109595;1251;59012;-72
2023/11/15 08:22:00;;;;;;;5.50;4.00;;;;;;;16.84;100.00;97681.27;109627;1250;58998;-70
2023/11/15 08:24:27;;;;;;;8.50;4.30;;;;;;;16.49;100.00;97679.52;109574;1251;74630;-74
2023/11/15 08:26:54;;;;;;;5.40;3.90;;;;;;;16.00;100.00;97686.14;109625;1251;67985;-72
2023/11/15 08:29:22;;;;;;;9.00;4.30;;;;;;;15.51;100.00;97689.27;109617;1250;71708;-73
2023/11/15 08:31:49;;;;;;;4.10;3.30;;;;;;;15.20;100.00;97686.38;109606;1251;59115;-72
2023/11/15 08:34:15;;;;;;;6.20;3.60;;;;;;;14.81;100.00;97687.84;109443;1251;59332;-72
2023/11/15 08:36:44;;;;;;;3.90;2.70;;;;;;;14.43;100.00;97686.36;109490;1251;74987;-73
2023/11/15 08:39:15;;;;;;;5.10;3.20;;;;;;;14.01;100.00;97697.07;109501;1250;67872;-74
2023/11/15 08:41:41;;;;;;;6.40;3.70;;;;;;;13.63;100.00;97698.15;109299;1251;72493;-72
2023/11/15 08:44:09;;;;;;;6.00;4.40;;;;;;;13.32;100.00;97700.89;109514;1251;59746;-74
2023/11/15 08:46:41;;;;;;;5.70;3.20;;;;;;;13.11;100.00;97700.19;109499;1251;60539;-71
2023/11/15 08:49:10;;;;;;;5.20;3.00;;;;;;;12.94;100.00;97702.92;109567;1250;74473;-71
2023/11/15 08:51:40;;;;;;;4.00;2.60;;;;;;;12.84;100.00;97703.45;109624;1250;68161;-74
2023/11/15 08:54:07;;;;;;;4.20;3.10;;;;;;;12.76;100.00;97700.36;109662;1251;71151;-75
2023/11/15 08:56:35;;;;;;;6.60;3.00;;;;;;;12.82;100.00;97702.77;109587;1249;60336;-72
2023/11/15 08:59:03;;;;;;;7.00;4.70;;;;;;;12.92;100.00;97699.69;109632;1251;60383;-71
2023/11/15 09:01:31;;;;;;;7.10;3.50;;;;;;;12.94;100.00;97704.58;109641;1251;75138;-73
2023/11/15 09:03:59;;;;;;;6.20;3.90;;;;;;;13.01;100.00;97703.86;109621;1251;67041;-73
2023/11/15 09:06:27;;;;;;;4.60;2.70;;;;;;;13.04;100.00;97703.35;109505;1250;71603;-71
2023/11/15 09:08:54;;;;;;;6.00;3.40;;;;;;;12.98;100.00;97701.91;109608;1251;59313;-76
2023/11/15 09:11:21;;;;;;;6.30;3.50;;;;;;;12.88;100.00;97700.23;109675;1251;59995;-71
2023/11/15 09:13:47;;;;;;;5.50;3.90;;;;;;;12.73;100.00;97703.55;109629;1251;74500;-71
2023/11/15 09:16:14;;;;;;;5.00;3.10;;;;;;;12.62;100.00;97701.59;109670;1251;66402;-75
2023/11/15 09:18:42;;;;;;;7.70;3.60;;;;;;;12.51;100.00;97696.96;109674;1250;73691;-72
2023/11/15 09:21:12;;;;;;;7.10;4.20;;;;;;;12.41;100.00;97694.77;109634;1250;61910;-74
2023/11/15 09:23:41;;;;;;;6.20;3.80;;;;;;;12.53;100.00;97692.95;109706;1250;58974;-73
2023/11/15 09:26:15;;;;;;;4.50;2.70;;;;;;;12.73;100.00;97692.65;109692;1250;75034;-72
2023/11/15 09:28:42;;;;;;;5.20;2.70;;;;;;;12.84;100.00;97686.08;109625;1250;68009;-74
2023/11/15 09:31:08;;;;;;;6.20;3.00;;;;;;;12.84;100.00;97692.69;109630;1251;71228;-72
2023/11/15 09:33:35;;;;;;;5.60;3.20;;;;;;;12.80;100.00;97695.51;109618;1250;58925;-70
2023/11/15 09:36:06;;;;;;;6.60;3.70;;;;;;;12.75;100.00;97691.49;109610;1250;59122;-73
2023/11/15 09:38:33;;;;;;;6.60;4.00;;;;;;;12.66;100.00;97695.13;109663;1251;73484;-72
2023/11/15 09:41:00;;;;;;;5.40;3.20;;;;;;;12.49;100.00;97694.45;109528;1251;68178;-75
2023/11/15 09:43:28;;;;;;;5.50;3.60;;;;;;;12.33;100.00;97698.50;109568;1251;72462;-68
2023/11/15 09:45:58;;;;;;;4.10;3.20;;;;;;;12.20;100.00;97698.98;109646;1250;60375;-68
2023/11/15 09:48:26;;;;;;;9.40;4.10;;;;;;;12.11;100.00;97697.05;109625;1251;58959;-68
2023/11/15 09:50:53;;;;;;;6.70;3.90;;;;;;;12.04;100.00;97698.40;109597;1250;73819;-69
2023/11/15 09:53:20;;;;;;;5.60;4.10;;;;;;;11.93;100.00;97697.66;109442;1251;164144;-71
2023/11/15 09:55:47;;;;;;;8.90;4.10;;;;;;;11.82;100.00;97696.60;109416;1251;71701;-74
2023/11/15 09:58:14;;;;;;;3.70;3.10;;;;;;;11.73;100.00;97691.88;109618;1250;60419;-71
2023/11/15 10:00:40;;;;;;;5.30;3.50;;;;;;;11.69;100.00;97691.05;109693;1250;60341;-72
2023/11/15 10:03:07;;;;;;;7.50;3.60;;;;;;;11.68;100.00;97690.79;109615;1251;73775;-72
2023/11/15 10:05:34;;;;;;;6.20;3.70;;;;;;;11.75;100.00;97692.31;109682;1250;66539;-69
2023/11/15 10:08:08;;;;;;;6.80;4.30;;;;;;;11.93;100.00;97690.68;109547;1250;71874;-69
2023/11/15 10:10:35;;;;;;;4.00;3.10;;;;;;;12.14;100.00;97689.21;109537;1250;61272;-73
2023/11/15 10:13:16;;;;;;;5.90;3.80;;;;;;;12.32;100.00;97687.27;109673;1250;60204;-70
2023/11/15 10:15:46;;;;;;;5.40;3.60;;;;;;;12.51;100.00;97689.55;109541;1251;72739;-69
2023/11/15 10:18:14;;;;;;;6.30;3.80;;;;;;;12.60;100.00;97690.48;109617;1250;68800;-69
2023/11/15 10:20:41;;;;;;;8.00;4.30;;;;;;;12.58;100.00;97692.84;109676;1250;72685;-66
2023/11/15 10:23:12;;;;;;;5.80;4.00;;;;;;;12.50;100.00;97691.27;109651;1250;59111;-68
2023/11/15 10:25:50;;;;;;;7.90;3.60;;;;;;;12.36;100.00;97690.58;109643;1250;59453;-73
2023/11/15 10:28:21;;;;;;;7.90;4.40;;;;;;;12.24;100.00;97695.70;109682;1251;75168;-69
2023/11/15 10:31:14;;;;;;;9.60;4.50;;;;;;;12.13;100.00;97704.08;109688;1250;67763;-67
2023/11/15 10:33:49;;;;;;;10.10;4.60;;;;;;;12.01;100.00;97706.91;109685;1250;73012;-67
2023/11/15 10:36:17;;;;;;;8.10;4.30;;;;;;;11.90;100.00;97703.85;109678;1250;61876;-70
2023/11/15 10:38:54;;;;;;;9.20;4.60;;;;;;;11.80;100.00;97704.35;109617;1254;60330;-66
2023/11/15 10:41:22;;;;;;;8.60;4.70;;;;;;;11.65;100.00;97703.13;109664;1250;73430;-64
2023/11/15 10:43:50;;;;;;;10.40;5.00;;;;;;;11.52;100.00;97703.73;109643;1250;67475;-66
2023/11/15 10:46:26;;;;;;;6.60;5.00;;;;;;;11.45;100.00;97706.80;109627;1250;73040;-65
2023/11/15 10:48:56;;;;;;;6.60;4.80;;;;;;;11.41;100.00;97704.11;109635;1250;59065;-70
2023/11/15 10:51:29;;;;;;;6.40;4.50;;;;;;;11.37;100.00;97704.73;109585;1251;59061;-67
2023/11/15 10:53:56;;;;;;;6.00;3.50;;;;;;;11.31;100.00;97702.77;109570;1251;73385;-66
2023/11/15 10:56:23;;;;;;;6.10;3.30;;;;;;;11.25;100.00;97703.92;109699;1250;66663;-70
2023/11/15 10:58:51;;;;;;;6.40;3.90;;;;;;;11.23;100.00;97707.67;109450;1251;72481;-68
2023/11/15 11:01:17;;;;;;;7.80;3.80;;;;;;;11.22;100.00;97705.63;109683;1250;60225;-67
2023/11/15 11:03:51;;;;;;;5.80;3.40;;;;;;;11.26;100.00;97702.13;109644;1250;59141;-69
2023/11/15 11:06:25;;;;;;;4.10;3.00;;;;;;;11.32;100.00;97704.29;109688;1250;75003;-70
2023/11/15 11:09:09;;;;;;;4.70;3.00;;;;;;;11.35;100.00;97702.08;109637;1250;68048;-68
2023/11/15 11:11:53;;;;;;;4.60;3.10;;;;;;;11.39;100.00;97706.27;109433;1251;73221;-69
2023/11/15 11:14:30;;;;;;;5.20;2.80;;;;;;;11.43;100.00;97700.70;109469;1250;63224;-69
2023/11/15 11:16:58;;;;;;;5.30;3.30;;;;;;;11.51;100.00;97703.61;109637;1251;58894;-67
2023/11/15 11:19:28;;;;;;;6.00;4.20;;;;;;;11.63;100.00;97705.55;109672;1250;74399;-68
2023/11/15 11:22:04;;;;;;;7.40;5.00;;;;;;;11.76;100.00;97704.88;109711;1250;66721;-68
2023/11/15 11:24:32;;;;;;;8.20;3.70;;;;;;;11.93;100.00;97705.49;109638;1250;72523;-67